Time;durP1;ratioP1;P1;durP2;ratioP2;P2;SDS_P1;SDS_P2;PMS_P1;PMS_P2;Temp;Humidity;BMP_temperature;BMP_pressure;BME280_temperature;BME280_humidity;BME280_pressure;Samples;Min_cycle;Max_cycle;Signal;HPM_P1;HPM_P2
2023/12/27 00:04:15;;;;;;;3.03;1.77;;;;;;;17.77;52.18;97233.66;10402098;28;20280;-30
2023/12/27 00:09:15;;;;;;;3.80;1.70;;;;;;;17.74;52.15;97224.34;10400491;28;20090;-31
2023/12/27 00:14:16;;;;;;;2.50;1.07;;;;;;;17.73;52.39;97221.81;10398348;28;20049;-30
2023/12/27 00:19:16;;;;;;;2.50;0.93;;;;;;;17.75;52.21;97210.00;10400304;28;20038;-30
2023/12/27 00:24:16;;;;;;;1.63;1.27;;;;;;;17.75;52.29;97210.84;10392932;28;20042;-30
2023/12/27 00:29:17;;;;;;;3.57;1.47;;;;;;;17.74;52.39;97200.72;10393289;28;20611;-30
2023/12/27 00:34:17;;;;;;;1.63;1.37;;;;;;;17.75;52.13;97200.72;10393175;28;20041;-30
2023/12/27 00:39:23;;;;;;;2.20;1.27;;;;;;;17.73;52.10;97206.63;10394770;28;20038;-30
2023/12/27 00:44:24;;;;;;;;;;;;;;;17.74;52.00;97195.66;10392358;28;20499;-30
2023/12/27 00:49:24;;;;;;;1.80;1.20;;;;;;;17.72;52.55;97190.56;10404253;28;19913;-30
2023/12/27 00:54:24;;;;;;;1.67;1.10;;;;;;;17.72;52.19;97198.16;10401663;28;20033;-29
2023/12/27 00:59:25;;;;;;;2.10;1.10;;;;;;;17.68;51.87;97178.69;10389168;28;20042;-29
2023/12/27 01:04:27;;;;;;;3.93;1.30;;;;;;;17.75;51.73;97189.75;10395155;28;20033;-29
2023/12/27 01:09:28;;;;;;;1.70;1.15;;;;;;;17.73;51.67;97206.63;10406840;28;20068;-29
2023/12/27 01:14:28;;;;;;;3.30;1.20;;;;;;;17.73;51.66;97199.03;10404538;28;20030;-30
2023/12/27 01:19:29;;;;;;;1.90;1.27;;;;;;;17.71;51.74;97203.19;10398982;28;20029;-30
2023/12/27 01:24:29;;;;;;;1.57;1.00;;;;;;;17.71;51.50;97198.13;10398433;28;20038;-29
2023/12/27 01:29:29;;;;;;;1.63;1.00;;;;;;;17.67;51.77;97197.25;10394968;28;20026;-30
2023/12/27 01:34:30;;;;;;;1.05;0.88;;;;;;;17.67;51.65;97187.13;10397823;28;20033;-30
2023/12/27 01:39:31;;;;;;;1.75;1.08;;;;;;;17.69;51.96;97190.53;10399752;28;20032;-30
2023/12/27 01:44:32;;;;;;;0.90;0.90;;;;;;;17.67;51.57;97189.66;10395479;28;20037;-30
2023/12/27 01:49:32;;;;;;;2.57;0.80;;;;;;;17.71;51.38;97198.13;10402379;28;20284;-30
2023/12/27 01:54:32;;;;;;;1.53;0.80;;;;;;;17.66;51.48;97199.78;10402358;28;20037;-30
2023/12/27 01:59:33;;;;;;;1.90;1.10;;;;;;;17.69;51.44;97208.28;10399747;28;20052;-30
2023/12/27 02:04:33;;;;;;;2.78;1.10;;;;;;;17.68;51.45;97182.91;10404960;28;20798;-32
2023/12/27 02:09:34;;;;;;;1.27;0.80;;;;;;;17.66;51.29;97179.53;10404712;28;20053;-29
2023/12/27 02:14:34;;;;;;;1.73;0.73;;;;;;;17.65;51.36;97183.72;10394348;28;20037;-30
2023/12/27 02:19:35;;;;;;;1.57;0.87;;;;;;;17.66;51.23;97180.38;10387095;28;20033;-30
2023/12/27 02:24:36;;;;;;;1.50;0.98;;;;;;;17.65;51.04;97168.53;10391540;28;20029;-29
2023/12/27 02:29:38;;;;;;;1.65;0.98;;;;;;;17.66;51.20;97171.94;10396800;28;20029;-30
2023/12/27 02:34:38;;;;;;;1.80;1.10;;;;;;;17.67;51.20;97171.09;10403833;28;20037;-31
2023/12/27 02:39:38;;;;;;;2.10;1.10;;;;;;;17.66;51.16;97161.81;10396830;28;20029;-29
2023/12/27 02:44:39;;;;;;;1.30;0.97;;;;;;;17.62;51.44;97152.47;10394585;28;20819;-30
2023/12/27 02:49:39;;;;;;;2.87;0.93;;;;;;;17.63;51.58;97154.16;10394896;28;20025;-30
2023/12/27 02:54:41;;;;;;;1.27;0.70;;;;;;;17.64;51.28;97145.72;10397530;28;20033;-30
2023/12/27 02:59:41;;;;;;;0.93;0.83;;;;;;;17.61;51.52;97141.50;10393122;28;20037;-30
2023/12/27 03:04:42;;;;;;;1.80;1.37;;;;;;;17.65;50.96;97137.31;10400272;28;20083;-30
2023/12/27 03:09:42;;;;;;;1.30;0.70;;;;;;;17.64;51.33;97125.47;10399670;28;20025;-30
2023/12/27 03:14:42;;;;;;;1.48;1.20;;;;;;;17.59;51.21;97122.06;10398769;28;20041;-30
2023/12/27 03:19:43;;;;;;;1.60;0.90;;;;;;;17.63;51.27;97123.78;10398221;28;20033;-30
2023/12/27 03:24:43;;;;;;;2.78;0.85;;;;;;;17.62;51.52;97122.09;10398070;28;20029;-30
2023/12/27 03:29:44;;;;;;;1.10;0.80;;;;;;;17.64;51.28;97126.34;10392582;28;20039;-30
2023/12/27 03:34:44;;;;;;;1.43;0.67;;;;;;;17.64;51.11;97128.88;10377404;28;20096;-30
2023/12/27 03:39:46;;;;;;;2.43;0.97;;;;;;;17.58;51.10;97117.84;10400693;28;20044;-30
2023/12/27 03:44:52;;;;;;;0.98;0.65;;;;;;;17.55;51.14;97106.00;10400282;28;20026;-30
2023/12/27 03:49:52;;;;;;;1.70;0.75;;;;;;;17.64;50.95;97121.28;10398425;28;20071;-30
2023/12/27 03:54:53;;;;;;;1.00;0.70;;;;;;;17.60;51.17;97118.69;10398499;28;20087;-29
2023/12/27 03:59:53;;;;;;;0.60;0.60;;;;;;;17.61;50.75;97101.00;10400140;28;20033;-30
2023/12/27 04:04:53;;;;;;;1.33;0.70;;;;;;;17.55;50.89;97095.88;10396764;28;20040;-30
2023/12/27 04:09:54;;;;;;;0.70;0.60;;;;;;;17.63;51.02;97099.31;10392966;28;20121;-29
2023/12/27 04:14:55;;;;;;;2.40;0.80;;;;;;;17.65;50.82;97084.16;10396771;28;20048;-30
2023/12/27 04:19:55;;;;;;;2.50;0.90;;;;;;;17.60;50.93;97074.00;10392193;28;20048;-32
2023/12/27 04:24:55;;;;;;;1.27;1.10;;;;;;;17.62;50.79;97076.50;10404198;28;20095;-30
2023/12/27 04:29:56;;;;;;;1.73;0.80;;;;;;;17.59;50.95;97063.84;10398558;28;20762;-30
2023/12/27 04:34:57;;;;;;;2.75;0.90;;;;;;;17.61;50.83;97059.63;10409085;28;20341;-30
2023/12/27 04:39:58;;;;;;;1.27;0.80;;;;;;;17.60;50.68;97074.00;10428194;28;20040;-30
2023/12/27 04:44:59;;;;;;;0.73;0.65;;;;;;;17.65;50.78;97076.56;10401974;28;20040;-30
2023/12/27 04:49:59;;;;;;;0.73;0.63;;;;;;;17.64;50.78;97057.97;10401590;28;20033;-31
2023/12/27 04:54:59;;;;;;;1.00;0.70;;;;;;;17.69;50.37;97069.00;10404211;28;20087;-30
2023/12/27 05:00:00;;;;;;;0.80;0.63;;;;;;;17.69;50.45;97068.13;10404108;28;20034;-31
2023/12/27 05:05:00;;;;;;;1.23;0.50;;;;;;;17.67;50.36;97072.34;10404963;28;20642;-30
2023/12/27 05:10:00;;;;;;;0.60;0.43;;;;;;;17.61;50.84;97069.75;10430489;28;20292;-30
2023/12/27 05:15:01;;;;;;;0.60;0.50;;;;;;;17.59;50.63;97067.19;10387391;28;20053;-30
2023/12/27 05:20:01;;;;;;;1.00;0.60;;;;;;;17.53;50.84;97066.31;10403859;28;20038;-30
2023/12/27 05:25:02;;;;;;;0.77;0.77;;;;;;;17.53;50.68;97072.22;10406665;28;20029;-30
2023/12/27 05:30:02;;;;;;;1.48;0.60;;;;;;;17.66;50.34;97073.19;10404901;28;20411;-30
2023/12/27 05:35:03;;;;;;;2.38;0.60;;;;;;;17.71;49.88;97071.53;10403911;28;20385;-30
2023/12/27 05:40:04;;;;;;;0.95;0.50;;;;;;;17.63;50.39;97057.94;10406209;28;20045;-34
2023/12/27 05:45:05;;;;;;;0.88;0.60;;;;;;;17.45;49.36;97055.25;10401067;28;21167;-30
2023/12/27 05:50:06;;;;;;;1.95;0.73;;;;;;;17.72;49.48;97053.81;10395363;28;20033;-31
2023/12/27 05:55:07;;;;;;;2.22;0.80;;;;;;;17.73;50.42;97036.97;10399273;28;20072;-30
2023/12/27 06:00:08;;;;;;;4.93;0.82;;;;;;;17.70;49.90;97052.09;10397029;28;20107;-30
2023/12/27 06:05:14;;;;;;;3.75;0.80;;;;;;;17.70;50.60;97039.44;10395058;28;20214;-30
2023/12/27 06:10:15;;;;;;;1.98;0.57;;;;;;;17.75;50.84;97043.72;10403369;28;20423;-28
2023/12/27 06:15:15;;;;;;;3.40;0.75;;;;;;;17.73;51.11;97049.63;10402235;28;20033;-30
2023/12/27 06:20:15;;;;;;;1.75;0.80;;;;;;;17.74;51.49;97033.59;10399665;28;20084;-30
2023/12/27 06:25:16;;;;;;;3.07;0.77;;;;;;;17.65;51.67;97029.28;10404223;28;20064;-30
2023/12/27 06:30:16;;;;;;;1.10;0.80;;;;;;;17.68;51.83;97046.19;10405950;28;20037;-30
2023/12/27 06:35:16;;;;;;;1.63;0.67;;;;;;;17.67;52.02;97045.31;10403071;28;20292;-30
2023/12/27 06:40:17;;;;;;;2.10;0.70;;;;;;;17.68;52.10;97041.13;10403529;28;20701;-30
2023/12/27 06:45:17;;;;;;;0.70;0.50;;;;;;;17.66;52.42;97037.75;10397947;28;20037;-30
2023/12/27 06:50:18;;;;;;;0.70;0.60;;;;;;;17.66;52.38;97037.75;10400171;28;20045;-30
2023/12/27 06:55:18;;;;;;;0.70;0.40;;;;;;;17.67;52.54;97049.56;10403320;28;20049;-30
2023/12/27 07:00:19;;;;;;;1.17;0.50;;;;;;;17.61;52.61;97032.63;10398965;28;20037;-30
2023/12/27 07:05:19;;;;;;;0.88;0.50;;;;;;;17.57;52.42;97038.50;10403545;28;20458;-31
2023/12/27 07:10:19;;;;;;;1.03;0.40;;;;;;;17.55;52.64;97047.78;10401916;28;20036;-30
2023/12/27 07:15:20;;;;;;;1.37;0.50;;;;;;;17.55;52.39;97054.50;10399762;28;20284;-29
2023/12/27 07:20:21;;;;;;;1.10;0.70;;;;;;;17.52;52.30;97054.47;10401571;28;20299;-30
2023/12/27 07:25:21;;;;;;;0.80;0.67;;;;;;;17.52;52.55;97049.41;10402033;28;20514;-32
2023/12/27 07:30:22;;;;;;;2.45;0.70;;;;;;;17.51;52.57;97037.59;10400357;28;20288;-30
2023/12/27 07:35:23;;;;;;;0.93;0.40;;;;;;;17.50;52.17;97039.28;10390478;28;20516;-30
2023/12/27 07:40:23;;;;;;;1.45;0.70;;;;;;;17.47;52.37;97046.00;10400110;28;20045;-30
2023/12/27 07:45:24;;;;;;;1.63;0.70;;;;;;;17.46;52.36;97074.66;10392325;28;20488;-31
2023/12/27 07:50:24;;;;;;;0.60;0.50;;;;;;;17.49;52.05;97074.72;10400769;28;20496;-31
2023/12/27 07:55:25;;;;;;;0.57;0.40;;;;;;;17.46;52.12;97059.47;10396205;28;20300;-30
2023/12/27 08:00:25;;;;;;;0.77;0.40;;;;;;;17.42;51.85;97060.31;10397769;28;20451;-30
2023/12/27 08:05:26;;;;;;;0.60;0.50;;;;;;;17.46;51.67;97064.53;10403174;28;20373;-30
2023/12/27 08:10:26;;;;;;;0.60;0.60;;;;;;;17.45;51.99;97061.19;10407106;28;20494;-30
2023/12/27 08:15:26;;;;;;;0.83;0.47;;;;;;;17.41;51.69;97035.84;10408848;28;20033;-30
2023/12/27 08:20:27;;;;;;;2.20;0.30;;;;;;;17.42;52.14;97032.47;10395180;28;20068;-29
2023/12/27 08:25:27;;;;;;;0.60;0.43;;;;;;;17.44;51.69;97033.31;10395413;28;20314;-30
2023/12/27 08:30:28;;;;;;;0.70;0.60;;;;;;;17.42;51.82;97035.00;10407556;28;21476;-30
2023/12/27 08:35:28;;;;;;;0.60;0.43;;;;;;;17.46;51.65;97039.22;10405573;28;20308;-30
2023/12/27 08:40:28;;;;;;;0.50;0.50;;;;;;;17.40;51.73;97029.06;10403669;28;20045;-30
2023/12/27 08:45:29;;;;;;;0.85;0.55;;;;;;;17.43;51.50;97039.22;10403364;28;20034;-30
2023/12/27 08:50:29;;;;;;;0.40;0.30;;;;;;;17.43;51.66;97036.69;10400644;28;20034;-29
2023/12/27 08:55:30;;;;;;;0.60;0.60;;;;;;;17.41;51.51;97040.91;10402287;28;20034;-30
2023/12/27 09:00:30;;;;;;;0.85;0.85;;;;;;;17.40;51.70;97029.91;10405070;28;20506;-29
2023/12/27 09:05:31;;;;;;;1.20;0.50;;;;;;;17.42;51.71;97037.53;10393346;28;20029;-30
2023/12/27 09:10:31;;;;;;;2.78;0.50;;;;;;;17.38;51.87;97025.66;10400250;28;20030;-30
2023/12/27 09:15:32;;;;;;;0.70;0.50;;;;;;;17.36;51.74;97023.13;10407216;28;20064;-29
2023/12/27 09:20:32;;;;;;;0.47;0.47;;;;;;;17.36;51.76;97017.22;10406755;28;20029;-30
2023/12/27 09:25:33;;;;;;;0.27;0.27;;;;;;;17.29;51.46;97008.69;10399311;28;20042;-32
2023/12/27 09:30:33;;;;;;;0.60;0.40;;;;;;;17.36;51.33;97018.06;10400981;28;20296;-30
2023/12/27 09:35:33;;;;;;;0.50;0.40;;;;;;;17.35;51.30;97015.50;10388599;28;20045;-30
2023/12/27 09:40:34;;;;;;;0.30;0.30;;;;;;;17.36;51.68;97004.56;10401259;28;20061;-32
2023/12/27 09:45:36;;;;;;;0.65;0.45;;;;;;;17.32;51.24;96995.22;10397522;28;20463;-30
2023/12/27 09:50:40;;;;;;;0.75;0.52;;;;;;;17.35;51.41;97003.69;10406605;28;20029;-30
2023/12/27 09:55:40;;;;;;;0.70;0.70;;;;;;;17.28;51.46;96983.38;10398240;28;20156;-30
2023/12/27 10:00:45;;;;;;;0.70;0.55;;;;;;;17.34;51.18;96989.31;10403521;28;20030;-29
2023/12/27 10:05:58;;;;;;;0.47;0.47;;;;;;;17.34;51.10;96983.44;10402080;28;20026;-31
2023/12/27 10:11:00;;;;;;;0.43;0.40;;;;;;;17.32;51.35;96970.75;10402371;28;20068;-30
2023/12/27 10:16:03;;;;;;;0.50;0.50;;;;;;;17.36;50.94;96962.41;10406596;28;20035;-30
2023/12/27 10:21:04;;;;;;;0.57;0.35;;;;;;;17.42;51.32;96964.13;10397660;28;20128;-30
2023/12/27 10:26:05;;;;;;;0.90;0.70;;;;;;;17.43;50.81;96953.16;10393593;28;20500;-31
2023/12/27 10:31:06;;;;;;;0.50;0.50;;;;;;;17.36;51.04;96926.97;10400696;28;20105;-31
2023/12/27 10:36:08;;;;;;;0.40;0.40;;;;;;;17.46;50.82;96945.59;10395947;28;20043;-30
2023/12/27 10:41:09;;;;;;;0.57;0.40;;;;;;;17.41;51.00;96929.53;10400361;28;20041;-30
2023/12/27 10:46:10;;;;;;;0.50;0.50;;;;;;;17.44;51.23;96921.94;10395019;28;20029;-30
2023/12/27 10:51:11;;;;;;;0.43;0.43;;;;;;;17.42;51.09;96908.44;10393792;28;20092;-30
2023/12/27 10:56:15;;;;;;;0.30;0.30;;;;;;;17.41;50.92;96894.94;10395688;28;20124;-30
2023/12/27 11:01:16;;;;;;;0.60;0.45;;;;;;;17.42;51.07;96883.13;10400986;28;20037;-30
2023/12/27 11:06:19;;;;;;;0.60;0.47;;;;;;;17.42;51.28;96871.31;10395344;28;20033;-29
2023/12/27 11:11:21;;;;;;;0.43;0.30;;;;;;;17.44;51.12;96858.69;10397272;28;20045;-30
2023/12/27 11:16:22;;;;;;;0.52;0.40;;;;;;;17.40;51.15;96856.97;10399699;28;20119;-30
2023/12/27 11:21:23;;;;;;;0.65;0.60;;;;;;;17.39;51.25;96855.25;10398126;28;20063;-31
2023/12/27 11:26:24;;;;;;;0.50;0.40;;;;;;;17.39;51.17;96846.00;10393972;28;20170;-30
2023/12/27 11:31:25;;;;;;;0.90;0.43;;;;;;;17.39;51.26;96847.66;10403109;28;20491;-29
2023/12/27 11:36:25;;;;;;;0.95;0.47;;;;;;;17.39;50.91;96830.81;10395796;28;20033;-29
2023/12/27 11:41:25;;;;;;;0.82;0.43;;;;;;;17.38;50.84;96826.59;10391172;28;20427;-29
2023/12/27 11:46:27;;;;;;;0.50;0.40;;;;;;;17.37;50.81;96813.91;10400337;28;20037;-30
2023/12/27 11:51:35;;;;;;;0.63;0.40;;;;;;;17.34;51.33;96793.63;10391277;28;20408;-30
2023/12/27 11:56:37;;;;;;;0.60;0.30;;;;;;;17.39;51.15;96797.91;10389247;28;20044;-31
2023/12/27 12:01:40;;;;;;;0.60;0.52;;;;;;;17.41;51.46;96803.81;10402869;28;20053;-30
2023/12/27 12:06:56;;;;;;;0.47;0.30;;;;;;;17.40;51.37;96791.19;10399633;28;20057;-30
2023/12/27 12:11:57;;;;;;;1.90;0.70;;;;;;;17.40;51.23;96786.13;10394578;28;20037;-30
2023/12/27 12:16:58;;;;;;;0.47;0.40;;;;;;;17.40;51.56;96773.47;10397177;28;20076;-30
2023/12/27 12:21:58;;;;;;;0.43;0.40;;;;;;;17.37;51.59;96764.16;10399882;28;20114;-29
2023/12/27 12:26:59;;;;;;;0.73;0.50;;;;;;;17.39;51.81;96761.63;10395353;28;20697;-30
2023/12/27 12:32:00;;;;;;;0.63;0.50;;;;;;;17.39;51.37;96754.88;10401511;28;20044;-29
2023/12/27 12:37:00;;;;;;;0.30;0.30;;;;;;;17.40;51.71;96745.63;10399715;28;20038;-29
2023/12/27 12:42:01;;;;;;;0.40;0.30;;;;;;;17.29;51.82;96721.91;10397990;28;20057;-29
2023/12/27 12:47:02;;;;;;;0.50;0.43;;;;;;;17.38;51.63;96732.97;10408870;28;20508;-30
2023/12/27 12:52:04;;;;;;;0.88;0.50;;;;;;;17.37;51.64;96722.81;10402143;28;20038;-30
2023/12/27 12:57:08;;;;;;;0.47;0.47;;;;;;;17.37;52.02;96715.22;10388529;28;20037;-30
2023/12/27 13:02:10;;;;;;;0.35;0.30;;;;;;;17.36;51.88;96706.81;10404570;28;20033;-31
2023/12/27 13:07:10;;;;;;;0.50;0.50;;;;;;;17.38;52.00;96701.72;10401455;28;20084;-30
2023/12/27 13:12:13;;;;;;;0.60;0.40;;;;;;;17.35;52.04;96691.56;10400635;28;20443;-30
2023/12/27 13:17:13;;;;;;;0.88;0.45;;;;;;;17.36;52.13;96693.28;10404224;28;20117;-30
2023/12/27 13:22:14;;;;;;;0.75;0.43;;;;;;;17.38;52.13;96691.59;10401506;28;20571;-30
2023/12/27 13:27:14;;;;;;;0.85;0.50;;;;;;;17.35;52.32;96681.44;10404829;28;20057;-30
2023/12/27 13:32:14;;;;;;;0.30;0.30;;;;;;;17.37;52.17;96682.31;10406892;28;20411;-30
2023/12/27 13:37:18;;;;;;;0.40;0.40;;;;;;;17.36;52.13;96671.38;10404481;28;20312;-31
2023/12/27 13:42:19;;;;;;;0.35;0.30;;;;;;;17.33;51.87;96660.38;10400826;28;20037;-30
2023/12/27 13:47:19;;;;;;;0.30;0.30;;;;;;;17.36;52.37;96668.00;10407078;28;20769;-31
2023/12/27 13:52:20;;;;;;;0.30;0.27;;;;;;;17.35;52.24;96664.59;10395104;28;20025;-30
2023/12/27 13:57:20;;;;;;;1.10;0.68;;;;;;;17.34;52.21;96657.00;10392339;28;20037;-30
2023/12/27 14:02:20;;;;;;;0.33;0.33;;;;;;;17.34;52.23;96651.94;10396866;28;20566;-30
2023/12/27 14:07:21;;;;;;;0.33;0.33;;;;;;;17.33;52.19;96645.19;10398045;28;20033;-30
2023/12/27 14:12:25;;;;;;;0.50;0.30;;;;;;;17.34;52.36;96655.28;10394480;28;20057;-30
2023/12/27 14:17:26;;;;;;;0.50;0.40;;;;;;;17.33;52.21;96657.84;10396951;28;20079;-30
2023/12/27 14:22:26;;;;;;;0.38;0.30;;;;;;;17.28;52.46;96656.97;10398407;28;20112;-30
2023/12/27 14:27:27;;;;;;;0.50;0.50;;;;;;;17.33;52.29;96648.53;10398670;28;20040;-30
2023/12/27 14:32:28;;;;;;;0.20;0.20;;;;;;;17.32;52.27;96646.03;10401440;28;20224;-30
2023/12/27 14:37:31;;;;;;;0.40;0.40;;;;;;;17.33;52.26;96652.78;10402585;28;20044;-30
2023/12/27 14:42:32;;;;;;;0.52;0.45;;;;;;;17.31;52.42;96652.75;10393286;28;20106;-30
2023/12/27 14:47:32;;;;;;;0.27;0.27;;;;;;;17.33;52.51;96673.00;10401677;28;20035;-30
2023/12/27 14:52:32;;;;;;;0.40;0.30;;;;;;;17.31;52.46;96667.13;10401684;28;20063;-29
2023/12/27 14:57:33;;;;;;;0.30;0.30;;;;;;;17.30;52.48;96662.88;10395924;28;20053;-30
2023/12/27 15:02:34;;;;;;;0.77;0.32;;;;;;;17.31;52.49;96664.59;10395084;28;20060;-30
2023/12/27 15:07:34;;;;;;;0.83;0.40;;;;;;;17.29;52.64;96661.19;10400743;28;20033;-30
2023/12/27 15:12:34;;;;;;;0.77;0.40;;;;;;;17.29;52.27;96651.06;10393149;28;20095;-30
2023/12/27 15:17:35;;;;;;;0.32;0.32;;;;;;;17.29;52.68;96661.19;10403797;28;20815;-31
2023/12/27 15:22:35;;;;;;;0.30;0.30;;;;;;;17.29;52.32;96651.06;10402105;28;20029;-30
2023/12/27 15:27:39;;;;;;;0.30;0.30;;;;;;;17.28;52.29;96650.22;10401131;28;20289;-30
2023/12/27 15:32:39;;;;;;;0.35;0.30;;;;;;;17.25;52.68;96654.44;10400777;28;20044;-30
2023/12/27 15:37:39;;;;;;;0.20;0.20;;;;;;;17.27;52.66;96653.59;10397710;28;20049;-29
2023/12/27 15:42:40;;;;;;;0.20;0.20;;;;;;;17.26;52.44;96659.47;10394673;28;20916;-29
2023/12/27 15:47:44;;;;;;;0.53;0.50;;;;;;;17.26;52.57;96661.19;10403442;28;20330;-30
2023/12/27 15:52:44;;;;;;;0.75;0.75;;;;;;;17.23;52.43;96661.19;10399740;28;20081;-30
2023/12/27 15:57:44;;;;;;;0.67;0.40;;;;;;;17.24;52.32;96657.81;10402171;28;20089;-30
2023/12/27 16:02:45;;;;;;;0.40;0.40;;;;;;;17.22;52.17;96646.81;10399806;28;20123;-30
2023/12/27 16:07:45;;;;;;;0.30;0.30;;;;;;;17.18;52.28;96647.66;10402136;28;20029;-29
2023/12/27 16:12:47;;;;;;;0.28;0.20;;;;;;;17.24;52.18;96642.63;10392602;28;20044;-30
2023/12/27 16:17:47;;;;;;;0.50;0.47;;;;;;;17.24;51.90;96655.28;10402633;28;20563;-30
2023/12/27 16:22:47;;;;;;;0.30;0.30;;;;;;;17.22;51.71;96655.25;10404494;28;20037;-29
2023/12/27 16:27:47;;;;;;;0.60;0.50;;;;;;;17.23;51.83;96672.13;10406322;28;20518;-31
2023/12/27 16:32:49;;;;;;;0.80;0.60;;;;;;;17.27;51.70;96672.97;10408217;28;20022;-30
2023/12/27 16:37:50;;;;;;;0.30;0.30;;;;;;;17.27;51.76;96680.56;10408599;28;20037;-30
2023/12/27 16:42:50;;;;;;;1.52;0.60;;;;;;;17.31;51.34;96669.66;10401033;28;20042;-30
2023/12/27 16:47:57;;;;;;;0.40;0.40;;;;;;;17.28;51.74;96670.47;10405591;28;20025;-30
2023/12/27 16:52:58;;;;;;;;;;;;;;;17.31;51.64;96675.53;10406048;28;20041;-30
2023/12/27 16:57:58;;;;;;;0.55;0.50;;;;;;;17.30;51.46;96675.50;10402618;28;19968;-30
2023/12/27 17:03:00;;;;;;;0.50;0.43;;;;;;;17.29;52.00;96677.22;10406304;28;20072;-30
2023/12/27 17:08:07;;;;;;;0.52;0.40;;;;;;;17.31;51.71;96674.69;10402708;28;20041;-30
2023/12/27 17:13:07;;;;;;;0.60;0.50;;;;;;;17.28;51.59;96674.66;10403414;28;20033;-30
2023/12/27 17:18:08;;;;;;;0.77;0.50;;;;;;;17.29;51.77;96668.75;10406690;28;20064;-30
2023/12/27 17:23:08;;;;;;;0.60;0.50;;;;;;;17.29;51.41;96656.97;10404285;28;20099;-31
2023/12/27 17:28:08;;;;;;;0.50;0.37;;;;;;;17.29;51.63;96664.56;10405264;28;20291;-33
2023/12/27 17:33:09;;;;;;;0.50;0.43;;;;;;;17.27;51.35;96665.41;10403408;28;20045;-30
2023/12/27 17:38:09;;;;;;;0.65;0.65;;;;;;;17.27;51.42;96673.84;10398495;28;20041;-30
2023/12/27 17:43:10;;;;;;;1.20;0.73;;;;;;;17.24;47.97;96668.75;10401919;28;20044;-31
2023/12/27 17:48:10;;;;;;;2.93;0.77;;;;;;;17.20;49.80;96667.06;10402309;28;20034;-30
2023/12/27 17:53:14;;;;;;;1.23;0.60;;;;;;;17.22;50.61;96694.88;10401557;28;20033;-30
2023/12/27 17:58:14;;;;;;;0.50;0.50;;;;;;;17.22;50.82;96707.53;10397132;28;20630;-29
2023/12/27 18:03:15;;;;;;;0.90;0.70;;;;;;;17.23;50.59;96711.78;10396645;28;20033;-30
2023/12/27 18:08:15;;;;;;;1.47;1.10;;;;;;;17.26;50.26;96707.53;10397935;28;20296;-30
2023/12/27 18:13:15;;;;;;;1.47;0.90;;;;;;;17.27;50.14;96704.22;10398362;28;20726;-30
2023/12/27 18:18:17;;;;;;;1.70;0.93;;;;;;;17.26;50.36;96707.53;10405734;28;20041;-30
2023/12/27 18:23:17;;;;;;;3.03;1.00;;;;;;;17.24;50.01;96714.28;10401901;28;20382;-30
2023/12/27 18:28:18;;;;;;;2.20;1.23;;;;;;;17.25;50.47;96730.34;10398538;28;20037;-30
2023/12/27 18:33:19;;;;;;;1.77;0.90;;;;;;;17.26;50.53;96737.09;10400970;28;20279;-31
2023/12/27 18:38:20;;;;;;;2.25;1.02;;;;;;;17.28;50.33;96730.34;10399560;28;20041;-29
2023/12/27 18:43:21;;;;;;;2.58;1.00;;;;;;;17.25;50.40;96735.38;10392702;28;20059;-30
2023/12/27 18:48:22;;;;;;;1.45;1.10;;;;;;;17.27;50.29;96726.13;10403991;28;20068;-30
2023/12/27 18:53:22;;;;;;;1.30;0.90;;;;;;;17.17;50.20;96711.75;10395571;28;20033;-30
2023/12/27 18:58:23;;;;;;;3.27;1.20;;;;;;;17.25;50.10;96725.28;10397326;28;20492;-31
2023/12/27 19:03:23;;;;;;;2.47;1.17;;;;;;;17.21;50.38;96713.44;10395907;28;20057;-31
2023/12/27 19:08:23;;;;;;;2.10;1.17;;;;;;;17.20;50.41;96721.88;10399120;28;20044;-30
2023/12/27 19:13:25;;;;;;;1.67;0.80;;;;;;;17.19;50.45;96733.69;10398237;28;20037;-30
2023/12/27 19:18:25;;;;;;;2.13;1.08;;;;;;;17.10;50.11;96705.81;10403094;28;20049;-29
2023/12/27 19:23:28;;;;;;;2.67;0.80;;;;;;;17.19;50.25;96721.03;10394272;28;20034;-29
2023/12/27 19:28:28;;;;;;;1.45;1.02;;;;;;;17.18;50.04;96721.00;10402510;28;20841;-30
2023/12/27 19:33:29;;;;;;;1.10;0.97;;;;;;;17.17;50.14;96721.84;10402384;28;20040;-30
2023/12/27 19:38:30;;;;;;;4.17;1.23;;;;;;;17.16;49.94;96712.59;10400456;28;20044;-30
2023/12/27 19:43:31;;;;;;;2.17;1.27;;;;;;;17.14;49.86;96725.22;10394023;28;20420;-30
2023/12/27 19:48:35;;;;;;;1.40;0.70;;;;;;;17.13;49.79;96728.59;10401525;28;20483;-30
2023/12/27 19:53:35;;;;;;;1.08;0.95;;;;;;;17.14;49.85;96706.69;10401917;28;20033;-30
2023/12/27 19:58:36;;;;;;;1.50;1.37;;;;;;;17.16;49.57;96733.66;10389217;28;20037;-29
2023/12/27 20:03:37;;;;;;;1.40;1.00;;;;;;;17.16;49.57;96735.34;10402245;28;20083;-30
2023/12/27 20:08:40;;;;;;;1.30;0.88;;;;;;;17.12;49.41;96739.53;10393366;28;20447;-30
2023/12/27 20:13:41;;;;;;;1.00;0.90;;;;;;;17.14;49.25;96742.09;10385809;28;20603;-31
2023/12/27 20:18:41;;;;;;;1.35;0.80;;;;;;;17.15;49.35;96748.84;10399664;28;20172;-30
2023/12/27 20:23:41;;;;;;;1.60;1.20;;;;;;;17.15;49.34;96753.91;10391266;28;20515;-30
2023/12/27 20:28:42;;;;;;;1.00;0.87;;;;;;;17.14;49.71;96777.50;10400132;28;20491;-29
2023/12/27 20:33:42;;;;;;;1.23;1.07;;;;;;;17.14;49.53;96780.88;10389727;28;20029;-30
2023/12/27 20:38:42;;;;;;;1.70;1.13;;;;;;;17.09;49.40;96756.38;10394081;28;20412;-30
2023/12/27 20:43:43;;;;;;;1.43;1.20;;;;;;;17.11;49.54;96744.59;10396447;28;20044;-30
2023/12/27 20:48:43;;;;;;;1.80;1.40;;;;;;;17.13;49.47;96742.91;10389007;28;20025;-30
2023/12/27 20:53:43;;;;;;;1.57;1.00;;;;;;;17.18;49.24;96759.81;10397879;28;20498;-30
2023/12/27 20:58:44;;;;;;;1.10;1.00;;;;;;;17.17;49.50;96747.97;10385217;28;20025;-32
2023/12/27 21:03:44;;;;;;;0.90;0.80;;;;;;;17.11;49.16;96731.94;10388422;28;20292;-31
2023/12/27 21:08:45;;;;;;;1.07;0.97;;;;;;;17.17;49.34;96726.91;10396708;28;20038;-29
2023/12/27 21:13:45;;;;;;;1.20;0.90;;;;;;;17.21;49.07;96748.84;10403383;28;20091;-31
2023/12/27 21:18:46;;;;;;;1.20;1.07;;;;;;;17.21;49.21;96748.84;10408074;28;20029;-30
2023/12/27 21:23:47;;;;;;;1.10;0.80;;;;;;;17.22;49.15;96750.53;10402552;28;20033;-31
2023/12/27 21:28:48;;;;;;;1.63;0.90;;;;;;;17.14;49.20;96732.81;10397705;28;20324;-30
2023/12/27 21:33:51;;;;;;;1.52;0.88;;;;;;;17.21;49.11;96743.78;10392176;28;20717;-30
2023/12/27 21:38:52;;;;;;;1.92;1.02;;;;;;;17.16;49.26;96740.41;10396835;28;20514;-30
2023/12/27 21:43:56;;;;;;;2.00;1.30;;;;;;;17.18;49.53;96753.91;10400762;28;20092;-30
2023/12/27 21:48:56;;;;;;;1.17;0.93;;;;;;;17.18;48.87;96764.03;10400713;28;20508;-30
2023/12/27 21:53:57;;;;;;;1.98;0.93;;;;;;;17.18;49.37;96758.97;10403776;28;20033;-30
2023/12/27 21:58:59;;;;;;;2.63;1.27;;;;;;;17.17;49.75;96767.41;10398033;28;20049;-30
2023/12/27 22:04:03;;;;;;;1.17;1.00;;;;;;;17.12;49.36;96758.91;10401523;28;20056;-30
2023/12/27 22:09:05;;;;;;;1.50;0.80;;;;;;;17.12;49.34;96763.97;10397255;28;20112;-30
2023/12/27 22:14:06;;;;;;;0.88;0.80;;;;;;;17.16;49.13;96765.69;10404529;28;20037;-31
2023/12/27 22:19:07;;;;;;;1.00;0.90;;;;;;;17.11;49.42;96780.84;10393599;28;20066;-30
2023/12/27 22:24:07;;;;;;;1.33;0.80;;;;;;;17.12;49.48;96761.44;10400925;28;20132;-30
2023/12/27 22:29:07;;;;;;;1.40;0.80;;;;;;;17.06;49.58;96754.69;10403493;28;20033;-30
2023/12/27 22:34:08;;;;;;;1.40;0.77;;;;;;;17.11;49.20;96785.91;10398371;28;20037;-30
2023/12/27 22:39:09;;;;;;;1.30;0.90;;;;;;;17.11;49.13;96783.38;10394341;28;20300;-30
2023/12/27 22:44:09;;;;;;;1.48;0.75;;;;;;;17.08;49.37;96807.81;10403100;28;20044;-30
2023/12/27 22:49:09;;;;;;;1.00;0.63;;;;;;;17.10;49.09;96801.06;10401076;28;20041;-30
2023/12/27 22:54:10;;;;;;;1.10;0.80;;;;;;;17.08;48.99;96803.59;10396879;28;20041;-31
2023/12/27 22:59:10;;;;;;;1.00;0.90;;;;;;;17.09;49.41;96799.38;10402411;28;20503;-30
2023/12/27 23:04:10;;;;;;;0.93;0.73;;;;;;;17.05;49.35;96780.81;10399895;28;20037;-31
2023/12/27 23:09:11;;;;;;;1.43;1.00;;;;;;;17.06;49.30;96800.19;10402339;28;20067;-29
2023/12/27 23:14:11;;;;;;;0.50;0.50;;;;;;;17.01;49.30;96798.47;10399171;28;20037;-30
2023/12/27 23:19:11;;;;;;;0.70;0.60;;;;;;;17.03;49.59;96812.84;10403474;28;20065;-29
2023/12/27 23:24:12;;;;;;;1.77;0.73;;;;;;;16.91;49.45;96796.72;10396549;28;20450;-29